createdAt,value
2022-12-25T01:18:41.262Z,9.87
2022-12-25T09:53:44.366Z,10.19
2022-12-25T09:56:12.846Z,10.25
2022-12-25T09:58:39.397Z,10.28
2022-12-25T10:01:12.004Z,10.32
2022-12-25T10:04:03.311Z,10.36
2022-12-25T10:06:45.257Z,10.40
2022-12-25T10:09:18.664Z,10.40
2022-12-25T10:11:59.886Z,10.41
2022-12-25T10:14:46.514Z,10.41
2022-12-25T10:17:22.026Z,10.43
2022-12-25T10:19:51.449Z,10.44
2022-12-25T10:22:30.392Z,10.51
2022-12-25T10:24:59.274Z,10.56
2022-12-25T10:27:40.158Z,10.66
2022-12-25T10:30:26.297Z,10.75
2022-12-25T10:32:53.340Z,10.84
2022-12-25T10:35:22.120Z,10.89
2022-12-25T10:37:59.637Z,10.94
2022-12-25T10:40:52.982Z,10.89
2022-12-25T10:43:33.003Z,10.80
2022-12-25T10:45:59.630Z,10.73
2022-12-25T10:48:30.280Z,10.72
2022-12-25T10:50:56.828Z,10.69
2022-12-25T10:53:39.100Z,10.71
2022-12-25T10:56:06.536Z,10.71
2022-12-25T10:58:33.813Z,10.65
2022-12-25T11:01:03.256Z,10.64
2022-12-25T11:03:35.067Z,10.60
2022-12-25T11:06:02.751Z,10.64
2022-12-25T11:08:31.361Z,10.63
2022-12-25T11:11:05.948Z,10.65
2022-12-25T11:13:39.395Z,10.70
2022-12-25T11:16:15.694Z,10.73
2022-12-25T11:18:50.979Z,10.74
2022-12-25T11:21:31.990Z,10.77
2022-12-25T11:24:02.388Z,10.77
2022-12-25T11:26:31.842Z,10.78
2022-12-25T11:28:58.576Z,10.82
2022-12-25T11:31:41.195Z,10.78
2022-12-25T11:34:26.328Z,10.75
2022-12-25T11:36:53.353Z,10.72
2022-12-25T11:39:32.666Z,10.72
2022-12-25T11:42:03.593Z,10.76
2022-12-25T11:44:33.027Z,10.80
2022-12-25T11:47:04.136Z,10.83
2022-12-25T11:49:30.745Z,10.82
2022-12-25T11:51:57.778Z,10.77
2022-12-25T11:54:32.159Z,10.77
2022-12-25T11:57:00.729Z,10.77
2022-12-25T11:59:34.999Z,10.72
2022-12-25T12:02:04.383Z,10.72
2022-12-25T12:04:42.111Z,10.68
2022-12-25T12:07:27.542Z,10.69
2022-12-25T12:10:16.647Z,10.74
2022-12-25T12:12:53.509Z,10.78
2022-12-25T12:15:35.564Z,10.86
2022-12-25T12:18:22.626Z,10.90
2022-12-25T12:21:10.583Z,11.02
2022-12-25T12:23:47.470Z,11.10
2022-12-25T12:26:28.168Z,11.16
2022-12-25T12:28:57.743Z,11.27
2022-12-25T12:31:25.245Z,11.37
2022-12-25T12:33:57.184Z,11.42
2022-12-25T12:36:35.714Z,11.42
2022-12-25T12:39:05.010Z,11.44
2022-12-25T12:41:48.645Z,11.48
2022-12-25T12:44:16.740Z,11.56
2022-12-25T12:47:26.406Z,11.59
2022-12-25T12:50:00.291Z,11.59
2022-12-25T12:52:38.233Z,11.59
2022-12-25T12:55:13.001Z,11.56
2022-12-25T12:57:40.271Z,11.56
2022-12-25T13:00:16.695Z,11.56
2022-12-25T13:03:06.281Z,11.55
2022-12-25T13:05:45.998Z,11.60
2022-12-25T13:08:33.221Z,11.61
2022-12-25T13:11:26.792Z,11.58
2022-12-25T13:13:55.028Z,11.54
2022-12-25T13:16:25.610Z,11.54
2022-12-25T13:18:53.633Z,11.55
2022-12-25T13:21:23.733Z,11.58
2022-12-25T13:23:56.669Z,11.57
2022-12-25T13:26:23.919Z,11.59
2022-12-25T13:28:50.333Z,11.60
2022-12-25T13:31:22.632Z,11.58
2022-12-25T13:33:55.554Z,11.62
2022-12-25T13:36:22.125Z,11.67
2022-12-25T13:38:51.397Z,11.72
2022-12-25T13:41:39.929Z,11.77
2022-12-25T13:44:14.995Z,11.82
2022-12-25T13:46:41.425Z,11.85
2022-12-25T13:49:14.382Z,11.85
2022-12-25T13:51:40.902Z,11.84
2022-12-25T13:54:08.793Z,11.84
2022-12-25T13:56:35.980Z,11.86
2022-12-25T13:59:03.415Z,11.88
2022-12-25T14:01:30.051Z,11.91
2022-12-25T14:03:56.608Z,11.94
2022-12-25T14:06:28.644Z,11.98
2022-12-25T14:08:56.757Z,12.01
2022-12-25T14:11:24.731Z,12.06
2022-12-25T14:13:54.470Z,12.12
2022-12-25T14:16:21.399Z,12.17
2022-12-25T14:18:59.049Z,12.25
2022-12-25T14:21:29.254Z,12.29
2022-12-25T14:23:55.946Z,12.36
2022-12-25T14:26:24.655Z,12.37
2022-12-25T14:29:15.760Z,12.39
2022-12-25T14:31:44.220Z,12.44
2022-12-25T14:34:14.899Z,12.50
2022-12-25T14:36:41.546Z,12.54
2022-12-25T14:39:26.737Z,12.56
2022-12-25T14:41:53.674Z,12.60
2022-12-25T14:44:36.750Z,12.61
2022-12-25T14:47:14.846Z,12.61
2022-12-25T14:49:41.796Z,12.64
2022-12-25T14:52:38.409Z,12.66
2022-12-25T14:55:18.680Z,12.68
2022-12-25T14:57:49.048Z,12.70
2022-12-25T15:00:20.860Z,12.73
2022-12-25T15:02:48.244Z,12.74
2022-12-25T15:05:25.637Z,12.75
2022-12-25T15:08:03.216Z,12.77
2022-12-25T15:10:58.783Z,12.78
2022-12-25T15:13:19.519Z,12.75
2022-12-25T15:15:52.224Z,12.71
2022-12-25T15:18:20.191Z,12.68
2022-12-25T15:20:46.636Z,12.70
2022-12-25T15:23:20.273Z,12.70
2022-12-25T15:25:47.606Z,12.73
2022-12-25T15:28:14.204Z,12.76
2022-12-25T15:30:40.811Z,12.75
2022-12-25T15:33:07.536Z,12.76
2022-12-25T15:35:34.256Z,12.76
2022-12-25T15:38:00.732Z,12.74
2022-12-25T15:40:27.191Z,12.72
2022-12-25T15:42:56.413Z,12.72
2022-12-25T15:45:26.765Z,12.68
2022-12-25T15:47:53.299Z,12.63
2022-12-25T15:50:21.648Z,12.64
2022-12-25T15:52:48.141Z,12.64
2022-12-25T15:55:14.937Z,12.66
2022-12-25T15:57:43.184Z,12.66
2022-12-25T16:00:17.041Z,12.66
2022-12-25T16:02:43.692Z,12.66
2022-12-25T16:05:10.765Z,12.67
2022-12-25T16:07:37.652Z,12.66
2022-12-25T16:10:06.510Z,12.64
2022-12-25T16:12:33.056Z,12.63
2022-12-25T16:14:59.623Z,12.63
2022-12-25T16:17:26.216Z,12.59
2022-12-25T16:19:52.639Z,12.55
2022-12-25T16:22:23.049Z,12.55
2022-12-25T16:24:49.943Z,12.53
2022-12-25T16:27:17.552Z,12.50
2022-12-25T16:29:44.501Z,12.48
2022-12-25T16:32:12.436Z,12.46
2022-12-25T16:34:40.531Z,12.48
2022-12-25T16:37:07.188Z,12.44
2022-12-25T16:39:33.648Z,12.42
2022-12-25T16:42:00.124Z,12.41
2022-12-25T16:44:26.624Z,12.42
2022-12-25T16:46:53.139Z,12.41
2022-12-25T16:49:19.797Z,12.43
2022-12-25T16:51:46.269Z,12.41
2022-12-25T16:54:14.550Z,12.39
2022-12-25T16:56:41.416Z,12.37
2022-12-25T16:59:07.828Z,12.36
2022-12-25T17:01:34.386Z,12.34
2022-12-25T17:04:01.424Z,12.33
2022-12-25T17:06:28.505Z,12.33
2022-12-25T17:08:59.635Z,12.35
2022-12-25T17:11:30.060Z,12.33
2022-12-25T17:13:59.689Z,12.34
2022-12-25T17:16:28.807Z,12.31
2022-12-25T17:18:57.024Z,12.25
2022-12-25T17:21:24.540Z,12.18
2022-12-25T17:23:50.999Z,12.12
2022-12-25T17:26:17.403Z,12.07
2022-12-25T17:28:43.866Z,12.04
2022-12-25T17:31:12.338Z,12.04
2022-12-25T17:33:39.962Z,12.04
2022-12-25T17:36:08.937Z,12.00
2022-12-25T17:38:35.736Z,11.98
2022-12-25T17:41:05.233Z,11.95
2022-12-25T17:43:32.875Z,11.95
2022-12-25T17:46:13.627Z,11.98
2022-12-25T17:48:40.261Z,12.02
2022-12-25T17:51:09.928Z,12.05
2022-12-25T17:53:37.409Z,12.01
2022-12-25T17:56:04.149Z,11.98
2022-12-25T17:58:30.631Z,11.97
2022-12-25T18:00:57.180Z,11.97
2022-12-25T18:03:24.098Z,11.95
2022-12-25T18:05:50.613Z,11.95
2022-12-25T18:08:17.092Z,11.99
2022-12-25T18:10:44.070Z,12.02
2022-12-25T18:13:11.428Z,12.03
2022-12-25T18:15:39.628Z,12.06
2022-12-25T18:18:07.910Z,12.07
2022-12-25T18:20:39.818Z,12.13
2022-12-25T18:23:07.941Z,12.12
2022-12-25T18:25:34.779Z,12.11
2022-12-25T18:28:02.617Z,12.11
2022-12-25T18:30:29.656Z,12.11
2022-12-25T18:32:56.112Z,12.13
2022-12-25T18:35:22.952Z,12.12
2022-12-25T18:37:49.408Z,12.12
2022-12-25T18:40:15.807Z,12.10
2022-12-25T18:42:43.256Z,12.15
2022-12-25T18:45:12.961Z,12.15
2022-12-25T18:47:39.451Z,12.15
2022-12-25T18:50:06.943Z,12.13
2022-12-25T18:52:47.895Z,12.12
2022-12-25T18:55:17.808Z,12.10
2022-12-25T18:57:44.217Z,12.07
2022-12-25T19:00:11.039Z,12.05
2022-12-25T19:02:37.698Z,12.03
2022-12-25T19:05:05.301Z,12.01
2022-12-25T19:07:31.893Z,11.99
2022-12-25T19:09:58.364Z,11.99
2022-12-25T19:12:24.840Z,12.01
2022-12-25T19:14:51.641Z,12.02
2022-12-25T19:17:18.298Z,12.00
2022-12-25T19:19:45.320Z,11.99
2022-12-25T19:22:11.885Z,11.97
2022-12-25T19:24:38.335Z,11.98
2022-12-25T19:27:04.768Z,11.97
2022-12-25T19:29:31.689Z,11.98
2022-12-25T19:31:58.295Z,11.98
2022-12-25T19:34:24.953Z,11.99
2022-12-25T19:36:51.737Z,12.00
2022-12-25T19:39:18.701Z,12.01
2022-12-25T19:41:47.220Z,12.02
2022-12-25T19:44:13.695Z,12.02
2022-12-25T19:46:40.796Z,12.00
2022-12-25T19:49:08.351Z,12.00
2022-12-25T19:51:40.864Z,11.96
2022-12-25T19:54:07.927Z,11.92
2022-12-25T19:56:34.973Z,11.94
2022-12-25T19:59:01.736Z,11.99
2022-12-25T20:01:29.436Z,11.98
2022-12-25T20:03:56.653Z,12.00
2022-12-25T20:06:28.408Z,12.02
2022-12-25T20:08:57.212Z,12.02
2022-12-25T20:11:25.416Z,12.05
2022-12-25T20:13:52.188Z,12.05
2022-12-25T20:16:18.780Z,12.05
2022-12-25T20:18:45.443Z,12.03
2022-12-25T20:21:17.878Z,12.04
2022-12-25T20:23:47.296Z,12.03
2022-12-25T20:26:14.432Z,12.01
2022-12-25T20:28:41.824Z,12.02
2022-12-25T20:31:19.942Z,12.01
2022-12-25T20:33:46.811Z,12.00
2022-12-25T20:36:13.281Z,12.02
2022-12-25T20:38:40.428Z,11.99
2022-12-25T20:41:27.346Z,12.01
2022-12-25T20:43:55.968Z,12.06
2022-12-25T20:46:22.802Z,12.09
2022-12-25T20:48:49.346Z,12.12
2022-12-25T20:51:23.866Z,12.09
2022-12-25T20:53:51.000Z,12.08
2022-12-25T20:56:18.600Z,12.08
2022-12-25T20:58:45.179Z,12.04
2022-12-25T21:01:17.099Z,12.02
2022-12-25T21:03:44.586Z,12.06
2022-12-25T21:06:11.913Z,12.09
2022-12-25T21:08:39.050Z,12.09
2022-12-25T21:11:05.991Z,12.10
2022-12-25T21:13:35.253Z,12.11
2022-12-25T21:16:04.804Z,12.13
2022-12-25T21:18:31.300Z,12.13
2022-12-25T21:21:05.643Z,12.12
2022-12-25T21:23:36.540Z,12.13
2022-12-25T21:26:15.430Z,12.13
2022-12-25T21:28:42.043Z,12.19
2022-12-25T21:31:08.948Z,12.21
2022-12-25T21:33:54.278Z,12.22
2022-12-25T21:36:24.978Z,12.24
2022-12-25T21:38:53.406Z,12.24
2022-12-25T21:41:20.219Z,12.24
2022-12-25T21:43:46.786Z,12.27
2022-12-25T21:46:14.243Z,12.27
2022-12-25T21:48:43.290Z,12.32
2022-12-25T21:51:36.071Z,12.32
2022-12-25T21:54:03.074Z,12.33
2022-12-25T21:56:39.772Z,12.33
2022-12-25T21:59:11.150Z,12.35
2022-12-25T22:01:38.349Z,12.35
2022-12-25T22:04:07.530Z,12.38
2022-12-25T22:06:53.203Z,12.38
2022-12-25T22:09:20.647Z,12.41
2022-12-25T22:12:05.812Z,12.45
2022-12-25T22:14:54.056Z,12.48
2022-12-25T22:17:48.398Z,12.51
2022-12-25T22:20:34.527Z,12.54
2022-12-25T22:23:01.096Z,12.57
2022-12-25T22:25:27.563Z,12.58
2022-12-25T22:27:54.412Z,12.57
2022-12-25T22:30:28.919Z,12.55
2022-12-25T22:32:56.080Z,12.56
2022-12-25T22:35:22.916Z,12.58
2022-12-25T22:37:49.933Z,12.57
2022-12-25T22:40:18.003Z,12.56
2022-12-25T22:42:46.883Z,12.57
2022-12-25T22:45:13.726Z,12.58
2022-12-25T22:47:40.514Z,12.59
2022-12-25T22:50:07.424Z,12.60
2022-12-25T22:52:33.955Z,12.59
